createdAt,value
2023-02-13T00:00:20.260Z,96722.44
2023-02-13T00:02:46.925Z,96737.84
2023-02-13T00:05:13.617Z,96727.13
2023-02-13T00:07:40.959Z,96718.56
2023-02-13T00:10:08.239Z,96631.97
2023-02-13T00:12:35.020Z,96730.34
2023-02-13T00:15:01.659Z,96732.34
2023-02-13T00:17:28.358Z,96704.53
2023-02-13T00:19:54.944Z,96708.94
2023-02-13T00:22:21.548Z,96731.56
2023-02-13T00:24:48.474Z,96729.75
2023-02-13T00:27:15.108Z,96704.22
2023-02-13T00:29:41.768Z,96697.16
2023-02-13T00:32:08.777Z,96730.38
2023-02-13T00:34:35.857Z,96727.91
2023-02-13T00:37:02.436Z,96738.91
2023-02-13T00:39:29.114Z,96740.50
2023-02-13T00:41:55.689Z,96737.44
2023-02-13T00:44:22.289Z,96723.22
2023-02-13T00:46:48.934Z,96710.50
2023-02-13T00:49:15.571Z,96734.28
2023-02-13T00:51:42.199Z,96731.31
2023-02-13T00:54:08.777Z,96743.19
2023-02-13T00:56:35.503Z,96756.88
2023-02-13T00:59:02.285Z,96725.19
2023-02-13T01:01:29.163Z,96744.63
2023-02-13T01:03:55.817Z,96752.56
2023-02-13T01:06:22.598Z,96758.13
2023-02-13T01:08:49.249Z,96752.84
2023-02-13T01:11:15.926Z,96734.13
2023-02-13T01:13:42.586Z,96666.22
2023-02-13T01:16:09.235Z,96745.38
2023-02-13T01:18:36.041Z,96723.56
2023-02-13T01:21:06.146Z,96722.94
2023-02-13T01:23:37.717Z,96738.84
2023-02-13T01:26:06.409Z,96758.31
2023-02-13T01:28:33.874Z,96758.13
2023-02-13T01:31:01.029Z,96742.13
2023-02-13T01:33:28.992Z,96768.81
2023-02-13T01:35:55.915Z,96764.34
2023-02-13T01:38:22.530Z,96761.09
2023-02-13T01:40:51.844Z,96764.88
2023-02-13T01:43:19.001Z,96757.69
2023-02-13T01:45:48.530Z,96761.44
2023-02-13T01:48:21.704Z,96772.84
2023-02-13T01:51:00.926Z,96757.81
2023-02-13T01:53:45.412Z,96762.47
2023-02-13T01:56:23.085Z,96751.25
2023-02-13T01:58:54.628Z,96769.31
2023-02-13T02:01:23.549Z,96773.63
2023-02-13T02:04:19.967Z,96734.09
2023-02-13T02:06:52.124Z,96749.91
2023-02-13T02:09:25.750Z,96770.81
2023-02-13T02:12:03.375Z,96734.25
2023-02-13T02:14:30.192Z,96750.94
2023-02-13T02:16:57.593Z,96742.75
2023-02-13T02:19:55.360Z,96722.63
2023-02-13T02:22:40.762Z,96768.38
2023-02-13T02:25:37.340Z,96750.34
2023-02-13T02:28:22.170Z,96766.81
2023-02-13T02:30:54.629Z,96762.13
2023-02-13T02:33:27.817Z,96768.59
2023-02-13T02:36:06.867Z,96776.53
2023-02-13T02:39:04.899Z,96774.22
2023-02-13T02:41:54.717Z,96770.41
2023-02-13T02:44:47.177Z,96782.75
2023-02-13T02:47:49.754Z,96786.69
2023-02-13T02:50:25.884Z,96780.91
2023-02-13T02:53:14.406Z,96794.03
2023-02-13T02:55:50.852Z,96787.91
2023-02-13T02:58:55.027Z,96799.41
2023-02-13T03:01:43.335Z,96771.81
2023-02-13T03:04:48.139Z,96779.72
2023-02-13T03:07:18.147Z,96789.84
2023-02-13T03:10:10.057Z,96792.63
2023-02-13T03:13:04.716Z,96751.09
2023-02-13T03:15:32.356Z,96780.47
2023-02-13T03:18:18.275Z,96790.28
2023-02-13T03:21:26.764Z,96762.56
2023-02-13T03:24:14.317Z,96751.06
2023-02-13T03:27:12.025Z,96761.22
2023-02-13T03:29:57.381Z,96803.63
2023-02-13T03:32:47.384Z,96795.84
2023-02-13T03:35:42.798Z,96799.19
2023-02-13T03:38:19.859Z,96780.59
2023-02-13T03:41:13.324Z,96771.78
2023-02-13T03:44:04.695Z,96775.16
2023-02-13T03:46:36.339Z,96777.56
2023-02-13T03:49:25.073Z,96785.72
2023-02-13T03:52:07.703Z,96795.84
2023-02-13T03:55:07.608Z,96742.19
2023-02-13T03:57:58.751Z,96778.47
2023-02-13T04:00:29.347Z,96788.53
2023-02-13T04:03:10.949Z,96777.59
2023-02-13T04:05:43.396Z,96744.53
2023-02-13T04:08:10.654Z,96789.63
2023-02-13T04:10:55.403Z,96789.06
2023-02-13T04:13:35.384Z,96798.19
2023-02-13T04:16:22.500Z,96807.56
2023-02-13T04:18:52.091Z,96754.56
2023-02-13T04:21:18.673Z,96792.84
2023-02-13T04:23:45.386Z,96798.09
2023-02-13T04:26:18.219Z,96799.31
2023-02-13T04:28:45.178Z,96804.56
2023-02-13T04:31:11.970Z,96805.78
2023-02-13T04:33:38.608Z,96785.16
2023-02-13T04:36:05.700Z,96798.97
2023-02-13T04:38:32.499Z,96805.00
2023-02-13T04:40:59.649Z,96794.41
2023-02-13T04:43:26.885Z,96798.19
2023-02-13T04:45:53.613Z,96759.41
2023-02-13T04:48:20.380Z,96756.53
2023-02-13T04:50:48.112Z,96800.06
2023-02-13T04:53:14.881Z,96782.72
2023-02-13T04:55:41.488Z,96777.13
2023-02-13T04:58:08.123Z,96809.44
2023-02-13T05:00:34.716Z,96810.53
2023-02-13T05:03:06.276Z,96818.56
2023-02-13T05:05:33.460Z,96776.69
2023-02-13T05:08:00.195Z,96781.34
2023-02-13T05:10:27.388Z,96803.31
2023-02-13T05:12:53.985Z,96804.97
2023-02-13T05:15:21.251Z,96819.22
2023-02-13T05:17:47.943Z,96830.94
2023-02-13T05:20:14.755Z,96801.84
2023-02-13T05:23:07.552Z,96815.25
2023-02-13T05:25:35.569Z,96811.44
2023-02-13T05:28:03.138Z,96838.38
2023-02-13T05:30:29.853Z,96830.25
2023-02-13T05:32:56.735Z,96832.25
2023-02-13T05:35:24.903Z,96750.00
2023-02-13T05:37:51.618Z,96807.59
2023-02-13T05:40:18.691Z,96842.94
2023-02-13T05:42:45.299Z,96787.66
2023-02-13T05:45:11.969Z,96813.16
2023-02-13T05:47:38.620Z,96850.75
2023-02-13T05:50:06.004Z,96814.34
2023-02-13T05:52:32.575Z,96837.72
2023-02-13T05:55:04.511Z,96847.50
2023-02-13T05:57:31.391Z,96784.22
2023-02-13T05:59:58.529Z,96825.31
2023-02-13T06:02:25.204Z,96851.81
2023-02-13T06:04:51.888Z,96859.31
2023-02-13T06:07:18.504Z,96854.38
2023-02-13T06:09:45.052Z,96844.22
2023-02-13T06:12:11.647Z,96859.63
2023-02-13T06:14:38.238Z,96858.63
2023-02-13T06:17:04.877Z,96845.84
2023-02-13T06:19:31.577Z,96845.44
2023-02-13T06:21:58.208Z,96808.31
2023-02-13T06:24:24.796Z,96842.97
2023-02-13T06:26:51.543Z,96861.66
2023-02-13T06:29:18.161Z,96867.81
2023-02-13T06:31:44.851Z,96865.91
2023-02-13T06:34:11.465Z,96841.63
2023-02-13T06:36:38.684Z,96846.97
2023-02-13T06:39:05.323Z,96881.91
2023-02-13T06:41:31.998Z,96880.50
2023-02-13T06:43:58.637Z,96882.47
2023-02-13T06:46:25.510Z,96887.25
2023-02-13T06:48:52.147Z,96873.53
2023-02-13T06:51:18.835Z,96852.03
2023-02-13T06:53:45.464Z,96882.28
2023-02-13T06:56:12.067Z,96879.03
2023-02-13T06:58:40.105Z,96882.34
2023-02-13T07:01:06.827Z,96881.44
2023-02-13T07:03:33.603Z,96863.69
2023-02-13T07:06:00.233Z,96889.19
2023-02-13T07:08:26.920Z,96877.41
2023-02-13T07:10:53.507Z,96863.53
2023-02-13T07:13:20.158Z,96866.56
2023-02-13T07:15:46.780Z,96876.06
2023-02-13T07:18:13.443Z,96885.88
2023-02-13T07:20:40.176Z,96897.63
2023-02-13T07:23:07.709Z,96893.53
2023-02-13T07:25:35.198Z,96901.16
2023-02-13T07:28:03.627Z,96851.44
2023-02-13T07:30:32.472Z,96875.16
2023-02-13T07:33:01.938Z,96897.66
2023-02-13T07:35:28.683Z,96897.72
2023-02-13T07:37:55.885Z,96878.94
2023-02-13T07:40:23.149Z,96888.84
2023-02-13T07:42:49.760Z,96891.63
2023-02-13T07:45:16.565Z,96891.09
2023-02-13T07:47:43.463Z,96869.63
2023-02-13T07:50:10.438Z,96872.97
2023-02-13T07:52:40.237Z,96891.09
2023-02-13T07:55:07.326Z,96888.31
2023-02-13T07:57:34.049Z,96839.59
2023-02-13T08:00:00.794Z,96894.81
2023-02-13T08:02:27.486Z,96886.97
2023-02-13T08:04:54.411Z,96890.16
2023-02-13T08:07:21.126Z,96860.97
2023-02-13T08:10:06.547Z,96907.31
2023-02-13T08:12:35.789Z,96860.19
2023-02-13T08:15:03.264Z,96861.44
2023-02-13T08:17:29.856Z,96901.53
2023-02-13T08:19:56.585Z,96904.50
2023-02-13T08:22:23.246Z,96879.19
2023-02-13T08:24:49.943Z,96861.66
2023-02-13T08:27:16.662Z,96894.63
2023-02-13T08:29:43.282Z,96883.03
2023-02-13T08:32:10.070Z,96894.56
2023-02-13T08:34:36.963Z,96886.78
2023-02-13T08:37:03.764Z,96889.09
2023-02-13T08:39:30.448Z,96887.69
2023-02-13T08:41:57.131Z,96887.75
2023-02-13T08:44:23.729Z,96892.22
2023-02-13T08:46:50.308Z,96858.28
2023-02-13T08:49:17.169Z,96871.19
2023-02-13T08:51:43.861Z,96878.56
2023-02-13T08:54:10.548Z,96885.59
2023-02-13T08:56:37.263Z,96884.22
2023-02-13T08:59:04.073Z,96869.47
2023-02-13T09:01:30.804Z,96854.66
2023-02-13T09:03:57.462Z,96881.44
2023-02-13T09:06:26.355Z,96886.00
2023-02-13T09:08:53.386Z,96894.47
2023-02-13T09:11:23.301Z,96847.66
2023-02-13T09:13:53.131Z,96875.75
2023-02-13T09:16:20.230Z,96883.31
2023-02-13T09:18:48.584Z,96855.19
2023-02-13T09:21:15.488Z,96871.03
2023-02-13T09:23:42.236Z,96865.88
2023-02-13T09:26:11.474Z,96880.19
2023-02-13T09:28:39.138Z,96883.94
2023-02-13T09:31:10.148Z,96881.72
2023-02-13T09:33:38.100Z,96883.94
2023-02-13T09:36:10.388Z,96873.38
2023-02-13T09:38:37.042Z,96877.00
2023-02-13T09:41:07.972Z,96875.44
2023-02-13T09:43:44.699Z,96866.16
2023-02-13T09:46:18.990Z,96869.19
2023-02-13T09:48:49.405Z,96866.19
2023-02-13T09:51:19.409Z,96858.84
2023-02-13T09:53:55.639Z,96830.00
2023-02-13T09:56:37.618Z,96857.03
2023-02-13T09:59:27.231Z,96847.16
2023-02-13T10:01:58.553Z,96833.47
2023-02-13T10:04:40.244Z,96835.53
2023-02-13T10:07:09.827Z,96829.88
2023-02-13T10:09:44.789Z,96829.88
2023-02-13T10:12:26.486Z,96829.56
2023-02-13T10:15:20.604Z,96821.97
2023-02-13T10:17:55.070Z,96815.94
2023-02-13T10:20:43.200Z,96805.13
2023-02-13T10:23:22.345Z,96805.09
2023-02-13T10:26:01.023Z,96785.47
2023-02-13T10:28:40.631Z,96772.50
2023-02-13T10:31:12.732Z,96761.41
2023-02-13T10:33:50.798Z,96788.38
2023-02-13T10:36:28.462Z,96787.13
2023-02-13T10:39:02.289Z,96777.19
2023-02-13T10:41:52.066Z,96739.69
2023-02-13T10:44:34.446Z,96770.38
2023-02-13T10:47:10.771Z,96756.22
2023-02-13T10:50:08.012Z,96771.00
2023-02-13T10:52:43.386Z,96765.03
2023-02-13T10:55:24.845Z,96761.75
2023-02-13T10:58:17.708Z,96756.56
2023-02-13T11:00:58.984Z,96732.28
2023-02-13T11:03:28.406Z,96750.78
2023-02-13T11:05:57.306Z,96738.81
2023-02-13T11:08:43.179Z,96735.72
2023-02-13T11:11:35.970Z,96730.81
2023-02-13T11:14:10.566Z,96713.03
2023-02-13T11:17:01.588Z,96714.19
2023-02-13T11:19:38.910Z,96711.84
2023-02-13T11:22:13.506Z,96701.84
2023-02-13T11:24:53.517Z,96700.28
2023-02-13T11:27:26.818Z,96692.13
2023-02-13T11:30:05.264Z,96673.22
2023-02-13T11:32:34.173Z,96692.53
2023-02-13T11:35:31.742Z,96675.56
2023-02-13T11:38:23.698Z,96666.66
2023-02-13T11:41:11.261Z,96629.94
2023-02-13T11:43:47.589Z,96646.16
2023-02-13T11:46:23.744Z,96649.22
2023-02-13T11:48:59.516Z,96599.78
2023-02-13T11:51:42.949Z,96651.19
2023-02-13T11:54:32.596Z,96650.81
2023-02-13T11:57:05.424Z,96629.13
2023-02-13T11:59:40.257Z,96638.03
2023-02-13T12:02:15.628Z,96639.16
2023-02-13T12:04:42.810Z,96620.97
2023-02-13T12:07:27.485Z,96631.34
2023-02-13T12:10:14.146Z,96616.25
2023-02-13T12:13:11.163Z,96632.50
2023-02-13T12:15:38.138Z,96597.00
2023-02-13T12:18:04.735Z,96624.75
2023-02-13T12:20:40.938Z,96619.63
2023-02-13T12:23:18.058Z,96627.19
2023-02-13T12:26:22.104Z,96621.00
2023-02-13T12:29:08.782Z,96621.81
2023-02-13T12:31:47.240Z,96608.47
2023-02-13T12:34:54.576Z,96599.09
2023-02-13T12:37:39.018Z,96538.41
2023-02-13T12:40:37.011Z,96602.63
2023-02-13T12:43:19.009Z,96579.78
2023-02-13T12:45:57.657Z,96555.25
2023-02-13T12:48:35.092Z,96586.03
2023-02-13T12:51:23.044Z,96585.09
2023-02-13T12:54:22.564Z,96590.97
2023-02-13T12:57:30.872Z,96585.09
2023-02-13T13:00:03.259Z,96588.38
2023-02-13T13:02:44.586Z,96580.53
2023-02-13T13:06:08.938Z,96568.94
2023-02-13T13:08:59.654Z,96570.53
2023-02-13T13:11:44.467Z,96571.97
2023-02-13T13:14:31.626Z,96552.56
2023-02-13T13:17:25.326Z,96558.91
2023-02-13T13:19:57.322Z,96548.19
2023-02-13T13:22:37.754Z,96548.44
2023-02-13T13:25:44.036Z,96554.09
2023-02-13T13:28:17.220Z,96532.00
2023-02-13T13:30:45.782Z,96490.81
2023-02-13T13:33:21.236Z,96554.94
2023-02-13T13:36:44.941Z,96557.00
2023-02-13T13:39:30.216Z,96556.69
2023-02-13T13:42:14.749Z,96556.75
2023-02-13T13:44:53.506Z,96548.69
2023-02-13T13:47:48.972Z,96555.66
2023-02-13T13:50:27.861Z,96515.88
2023-02-13T13:53:19.813Z,96546.34
2023-02-13T13:56:11.312Z,96554.00
2023-02-13T13:58:49.553Z,96517.75
2023-02-13T14:01:29.790Z,96544.31
2023-02-13T14:04:24.312Z,96538.56
2023-02-13T14:06:50.856Z,96534.38
2023-02-13T14:09:39.031Z,96541.88
2023-02-13T14:12:24.332Z,96543.38
2023-02-13T14:14:52.692Z,96523.72
2023-02-13T14:17:44.509Z,96531.03
2023-02-13T14:20:31.389Z,96531.41
2023-02-13T14:23:08.431Z,96468.38
2023-02-13T14:25:35.456Z,96441.03
2023-02-13T14:28:06.516Z,96512.00
2023-02-13T14:30:36.552Z,96453.34
2023-02-13T14:33:06.078Z,96470.38
2023-02-13T14:35:37.466Z,96521.16
2023-02-13T14:38:08.268Z,96507.34
2023-02-13T14:40:52.082Z,96498.09
2023-02-13T14:43:40.298Z,96522.25
2023-02-13T14:46:18.951Z,96521.03
2023-02-13T14:48:51.570Z,96521.22
2023-02-13T14:51:34.420Z,96498.19
2023-02-13T14:54:06.603Z,96532.91
2023-02-13T14:56:34.028Z,96515.13
2023-02-13T14:59:20.239Z,96519.78
2023-02-13T15:01:52.861Z,96511.38
2023-02-13T15:05:01.437Z,96508.69
2023-02-13T15:07:32.225Z,96515.34
2023-02-13T15:10:05.920Z,96516.09
2023-02-13T15:12:37.625Z,96517.47
2023-02-13T15:15:24.231Z,96470.63
2023-02-13T15:18:04.680Z,96495.97
2023-02-13T15:20:34.891Z,96517.09
2023-02-13T15:23:02.470Z,96518.25
2023-02-13T15:25:37.017Z,96517.28
2023-02-13T15:28:06.693Z,96518.88
2023-02-13T15:30:39.257Z,96518.53
2023-02-13T15:33:21.273Z,96490.38
2023-02-13T15:35:58.586Z,96508.59
2023-02-13T15:38:34.606Z,96520.25
2023-02-13T15:41:07.919Z,96516.41
2023-02-13T15:43:37.392Z,96493.59
2023-02-13T15:46:27.093Z,96490.91
2023-02-13T15:48:57.080Z,96476.19
2023-02-13T15:51:29.809Z,96511.72
2023-02-13T15:54:05.649Z,96517.88
2023-02-13T15:56:32.888Z,96525.16
2023-02-13T15:59:01.629Z,96513.13
2023-02-13T16:01:29.309Z,96529.63
2023-02-13T16:04:05.369Z,96529.22
2023-02-13T16:06:34.177Z,96533.47
2023-02-13T16:09:02.570Z,96509.44
2023-02-13T16:11:40.144Z,96524.50
2023-02-13T16:14:15.190Z,96514.78
2023-02-13T16:16:49.632Z,96547.16
2023-02-13T16:19:27.574Z,96532.53
2023-02-13T16:21:58.272Z,96546.78
2023-02-13T16:24:27.104Z,96518.44
2023-02-13T16:26:54.243Z,96569.06
2023-02-13T16:29:23.658Z,96567.06
2023-02-13T16:31:52.085Z,96499.59
2023-02-13T16:34:29.869Z,96443.22
2023-02-13T16:36:56.889Z,96542.22
2023-02-13T16:39:30.023Z,96507.34
2023-02-13T16:42:01.212Z,96540.91
2023-02-13T16:44:30.839Z,96561.75
2023-02-13T16:47:22.033Z,96536.22
2023-02-13T16:49:56.506Z,96534.59
2023-02-13T16:52:26.817Z,96528.34
2023-02-13T16:54:58.286Z,96548.50
2023-02-13T16:57:30.706Z,96552.66
2023-02-13T17:00:24.474Z,96543.75
2023-02-13T17:02:52.080Z,96547.59
2023-02-13T17:05:28.300Z,96523.25
2023-02-13T17:08:00.505Z,96484.16
2023-02-13T17:10:31.459Z,96549.91
2023-02-13T17:13:01.497Z,96549.16
2023-02-13T17:15:31.535Z,96527.41
2023-02-13T17:17:58.961Z,96549.72
2023-02-13T17:20:28.540Z,96555.88
2023-02-13T17:22:57.733Z,96543.72
2023-02-13T17:25:30.634Z,96524.53
2023-02-13T17:28:03.082Z,96525.09
2023-02-13T17:30:32.461Z,96553.28
2023-02-13T17:33:32.376Z,96535.56
2023-02-13T17:35:59.066Z,96511.03
2023-02-13T17:38:31.803Z,96469.06
2023-02-13T17:40:58.731Z,96488.66
2023-02-13T17:43:27.077Z,96530.56
2023-02-13T17:45:53.660Z,96533.66
2023-02-13T17:48:20.445Z,96474.69
2023-02-13T17:50:50.039Z,96500.13
2023-02-13T17:53:24.005Z,96484.97
2023-02-13T17:55:51.154Z,96544.38
2023-02-13T17:58:17.845Z,96489.78
2023-02-13T18:00:47.551Z,96502.13
2023-02-13T18:03:14.220Z,96505.59
2023-02-13T18:05:41.204Z,96476.59
2023-02-13T18:08:08.227Z,96475.56
2023-02-13T18:10:36.801Z,96479.13
2023-02-13T18:13:04.551Z,96461.38
2023-02-13T18:15:38.966Z,96504.31
2023-02-13T18:18:05.908Z,96460.16
2023-02-13T18:20:32.889Z,96461.81
2023-02-13T18:22:59.559Z,96475.19
2023-02-13T18:25:26.881Z,96505.66
2023-02-13T18:27:55.429Z,96465.63
2023-02-13T18:30:22.553Z,96495.56
2023-02-13T18:32:53.842Z,96524.13
2023-02-13T18:35:22.089Z,96535.72
2023-02-13T18:37:49.087Z,96449.16
2023-02-13T18:40:17.263Z,96496.34
2023-02-13T18:42:44.783Z,96518.44
2023-02-13T18:45:14.900Z,96500.22
2023-02-13T18:47:41.656Z,96515.66
2023-02-13T18:50:11.673Z,96465.69
2023-02-13T18:52:38.497Z,96526.41
2023-02-13T18:55:07.248Z,96433.41
2023-02-13T18:57:34.579Z,96514.44
2023-02-13T19:00:01.274Z,96523.31
2023-02-13T19:02:28.002Z,96427.97
2023-02-13T19:04:54.636Z,96523.31
2023-02-13T19:07:21.550Z,96504.00
2023-02-13T19:09:48.901Z,96471.38
2023-02-13T19:12:15.746Z,96476.84
2023-02-13T19:14:42.435Z,96536.91
2023-02-13T19:17:10.317Z,96525.66
2023-02-13T19:19:37.161Z,96489.19
2023-02-13T19:22:03.841Z,96517.16
2023-02-13T19:24:30.646Z,96485.41
2023-02-13T19:26:57.290Z,96481.56
2023-02-13T19:29:24.033Z,96476.72
2023-02-13T19:31:50.847Z,96431.09
2023-02-13T19:34:17.505Z,96420.56
2023-02-13T19:36:44.305Z,96441.38
2023-02-13T19:39:11.250Z,96448.06
2023-02-13T19:41:40.708Z,96529.19
2023-02-13T19:44:08.799Z,96525.38
2023-02-13T19:46:36.763Z,96478.06
2023-02-13T19:49:04.623Z,96464.47
2023-02-13T19:51:33.431Z,96455.66
2023-02-13T19:54:08.296Z,96488.38
2023-02-13T19:56:40.401Z,96523.34
2023-02-13T19:59:07.923Z,96516.16
2023-02-13T20:01:37.491Z,96502.75
2023-02-13T20:04:04.208Z,96529.09
2023-02-13T20:06:33.548Z,96492.72
2023-02-13T20:09:01.863Z,96496.88
2023-02-13T20:11:28.851Z,96520.84
2023-02-13T20:13:57.420Z,96506.31
2023-02-13T20:16:24.196Z,96505.13
2023-02-13T20:18:51.049Z,96514.00
2023-02-13T20:21:18.872Z,96500.22
2023-02-13T20:23:50.629Z,96502.59
2023-02-13T20:26:17.991Z,96476.31
2023-02-13T20:28:46.209Z,96504.09
2023-02-13T20:31:18.695Z,96489.03
2023-02-13T20:33:45.653Z,96483.28
2023-02-13T20:36:24.498Z,96484.59
2023-02-13T20:38:54.484Z,96460.25
2023-02-13T20:41:39.153Z,96423.81
2023-02-13T20:44:10.414Z,96479.84
2023-02-13T20:46:39.367Z,96479.16
2023-02-13T20:49:06.258Z,96486.97
2023-02-13T20:51:33.262Z,96463.22
2023-02-13T20:54:00.896Z,96474.06
2023-02-13T20:56:28.596Z,96439.66
2023-02-13T20:58:57.780Z,96488.78
2023-02-13T21:01:30.814Z,96485.59
2023-02-13T21:03:58.762Z,96477.91
2023-02-13T21:06:30.262Z,96477.91
2023-02-13T21:08:57.324Z,96457.03
2023-02-13T21:11:24.979Z,96468.53
2023-02-13T21:13:52.025Z,96472.41
2023-02-13T21:16:24.758Z,96445.00
2023-02-13T21:18:54.809Z,96465.09
2023-02-13T21:21:24.463Z,96440.06
2023-02-13T21:23:55.389Z,96457.50
2023-02-13T21:26:22.860Z,96415.97
2023-02-13T21:28:50.274Z,96460.09
2023-02-13T21:31:24.164Z,96456.03
2023-02-13T21:33:51.896Z,96413.16
2023-02-13T21:36:18.937Z,96460.41
2023-02-13T21:38:45.570Z,96460.81
2023-02-13T21:41:15.479Z,96462.38
2023-02-13T21:43:46.792Z,96453.19
2023-02-13T21:46:19.758Z,96451.13
2023-02-13T21:48:47.484Z,96435.66
2023-02-13T21:51:16.763Z,96437.91
2023-02-13T21:53:44.296Z,96438.84
2023-02-13T21:56:14.205Z,96421.88
2023-02-13T21:58:42.488Z,96412.97
2023-02-13T22:01:25.570Z,96415.72
2023-02-13T22:03:54.529Z,96426.97
2023-02-13T22:06:21.798Z,96445.50
2023-02-13T22:08:49.113Z,96436.69
2023-02-13T22:11:18.482Z,96416.09
2023-02-13T22:13:45.095Z,96435.22
2023-02-13T22:16:14.262Z,96417.44
2023-02-13T22:18:43.592Z,96434.59
2023-02-13T22:21:15.532Z,96425.75
2023-02-13T22:23:43.867Z,96409.09
2023-02-13T22:26:19.443Z,96417.97
2023-02-13T22:28:46.747Z,96426.09
2023-02-13T22:31:15.094Z,96426.44
2023-02-13T22:33:42.935Z,96424.91
2023-02-13T22:36:13.125Z,96424.84
2023-02-13T22:38:41.465Z,96383.03
2023-02-13T22:41:19.450Z,96405.22
2023-02-13T22:43:46.499Z,96408.06
2023-02-13T22:46:22.209Z,96411.09
2023-02-13T22:48:52.068Z,96410.06
2023-02-13T22:51:27.459Z,96413.16
2023-02-13T22:53:57.674Z,96391.94
2023-02-13T22:56:25.684Z,96406.19
2023-02-13T22:58:52.550Z,96407.88
2023-02-13T23:01:23.990Z,96409.38
2023-02-13T23:03:50.916Z,96405.13
2023-02-13T23:06:19.211Z,96405.47
2023-02-13T23:08:45.857Z,96396.94
2023-02-13T23:11:33.734Z,96390.03
2023-02-13T23:14:00.721Z,96401.19
2023-02-13T23:16:27.666Z,96366.88
2023-02-13T23:18:57.800Z,96390.13
2023-02-13T23:21:25.537Z,96398.19
2023-02-13T23:23:52.184Z,96377.59
2023-02-13T23:26:19.341Z,96398.06
2023-02-13T23:28:46.082Z,96406.53
2023-02-13T23:31:12.787Z,96394.53
2023-02-13T23:33:39.593Z,96353.72
2023-02-13T23:36:06.810Z,96359.84
2023-02-13T23:38:33.496Z,96401.44
2023-02-13T23:41:09.340Z,96347.59
2023-02-13T23:43:36.440Z,96398.25
2023-02-13T23:46:04.639Z,96399.72
2023-02-13T23:48:31.819Z,96400.50
2023-02-13T23:50:59.204Z,96385.06
2023-02-13T23:53:26.346Z,96400.66
2023-02-13T23:55:55.015Z,96388.72
2023-02-13T23:58:21.694Z,96374.41
